createdAt,value
2022-10-08T00:01:38.507Z,4.95
2022-10-08T00:08:41.499Z,4.88
2022-10-08T00:15:43.283Z,4.97
2022-10-08T00:22:45.203Z,5.13
2022-10-08T00:29:47.054Z,5.10
2022-10-08T00:36:51.132Z,5.28
2022-10-08T00:43:54.506Z,5.05
2022-10-08T00:50:56.103Z,4.90
2022-10-08T00:58:01.130Z,4.93
2022-10-08T01:05:04.713Z,5.60
2022-10-08T01:12:11.070Z,4.97
2022-10-08T01:19:38.255Z,4.90
2022-10-08T01:26:50.859Z,4.93
2022-10-08T01:34:00.327Z,5.10
2022-10-08T01:41:04.045Z,4.78
2022-10-08T01:48:08.028Z,4.78
2022-10-08T01:55:15.551Z,4.57
2022-10-08T02:02:21.448Z,5.30
2022-10-08T02:09:25.316Z,4.38
2022-10-08T02:16:28.828Z,4.38
2022-10-08T02:23:42.388Z,4.65
2022-10-08T02:30:48.680Z,5.05
2022-10-08T02:37:56.425Z,4.90
2022-10-08T02:45:00.733Z,4.88
2022-10-08T02:52:02.362Z,4.18
2022-10-08T02:59:04.957Z,4.75
2022-10-08T03:06:08.442Z,4.55
2022-10-08T03:13:12.530Z,4.63
2022-10-08T03:20:14.098Z,5.35
2022-10-08T03:27:15.650Z,5.53
2022-10-08T03:34:17.245Z,4.78
2022-10-08T03:41:18.935Z,4.72
2022-10-08T03:48:21.170Z,4.63
2022-10-08T03:55:22.761Z,4.82
2022-10-08T04:02:24.331Z,4.18
2022-10-08T04:09:26.314Z,5.25
2022-10-08T04:16:27.867Z,5.45
2022-10-08T04:23:31.518Z,4.68
2022-10-08T04:30:33.053Z,4.65
2022-10-08T04:37:34.611Z,5.53
2022-10-08T04:44:36.259Z,8.77
2022-10-08T04:51:37.803Z,4.97
2022-10-08T04:58:39.469Z,4.70
2022-10-08T05:05:41.737Z,4.53
2022-10-08T05:12:43.288Z,4.85
2022-10-08T05:19:44.849Z,5.30
2022-10-08T05:26:58.613Z,5.40
2022-10-08T05:34:00.723Z,5.45
2022-10-08T05:41:23.652Z,4.30
2022-10-08T05:48:25.209Z,4.95
2022-10-08T05:55:27.448Z,5.38
2022-10-08T06:02:29.157Z,5.10
2022-10-08T06:09:30.784Z,5.38
2022-10-08T06:16:32.596Z,5.68
2022-10-08T06:23:34.369Z,4.95
2022-10-08T06:30:36.079Z,5.20
2022-10-08T06:37:37.746Z,5.68
2022-10-08T06:44:39.331Z,5.30
2022-10-08T06:51:40.989Z,5.18
2022-10-08T06:58:44.765Z,5.43
2022-10-08T07:05:46.360Z,5.45
2022-10-08T07:12:49.618Z,5.00
2022-10-08T07:19:52.287Z,4.80
2022-10-08T07:26:53.855Z,4.65
2022-10-08T07:33:56.352Z,5.13
2022-10-08T07:40:57.893Z,4.80
2022-10-08T07:47:59.976Z,4.68
2022-10-08T07:55:01.621Z,4.43
2022-10-08T08:02:03.501Z,3.58
2022-10-08T08:09:05.115Z,3.97
2022-10-08T08:16:08.493Z,3.92
2022-10-08T08:23:10.071Z,3.17
2022-10-08T08:30:13.102Z,3.33
2022-10-08T08:37:14.676Z,3.20
2022-10-08T08:44:16.105Z,3.25
2022-10-08T08:51:17.659Z,3.42
2022-10-08T08:58:41.563Z,3.03
2022-10-08T09:05:44.411Z,2.78
2022-10-08T09:12:46.514Z,3.22
2022-10-08T09:19:48.631Z,2.97
2022-10-08T09:26:50.973Z,3.10
2022-10-08T09:34:03.954Z,3.00
2022-10-08T09:41:18.863Z,2.65
2022-10-08T09:48:30.182Z,3.10
2022-10-08T09:55:35.176Z,4.35
2022-10-08T10:02:37.268Z,3.33
2022-10-08T10:09:47.680Z,3.05
2022-10-08T10:16:50.279Z,3.25
2022-10-08T10:24:09.986Z,3.20
2022-10-08T10:38:38.500Z,3.42
2022-10-08T10:45:46.534Z,3.67
2022-10-08T10:53:03.469Z,3.40
2022-10-08T11:00:08.540Z,2.85
2022-10-08T11:07:30.921Z,3.17
2022-10-08T11:14:44.538Z,3.08
2022-10-08T11:21:55.517Z,2.80
2022-10-08T11:29:18.791Z,4.15
2022-10-08T11:36:37.245Z,3.10
2022-10-08T11:43:59.730Z,3.22
2022-10-08T11:51:19.651Z,4.28
2022-10-08T11:58:25.305Z,3.70
2022-10-08T12:05:26.782Z,3.95
2022-10-08T12:12:50.560Z,3.97
2022-10-08T12:20:17.395Z,4.15
2022-10-08T12:27:29.811Z,3.85
2022-10-08T12:34:31.699Z,4.05
2022-10-08T12:41:42.156Z,4.43
2022-10-08T12:48:51.707Z,3.78
2022-10-08T12:55:55.052Z,3.78
2022-10-08T13:03:07.270Z,3.53
2022-10-08T13:10:20.220Z,3.83
2022-10-08T13:17:32.899Z,3.22
2022-10-08T13:24:38.732Z,2.80
2022-10-08T13:31:57.991Z,3.35
2022-10-08T13:38:59.595Z,2.30
2022-10-08T13:46:01.233Z,2.70
2022-10-08T13:53:02.889Z,2.40
2022-10-08T14:00:05.229Z,2.92
2022-10-08T14:07:08.836Z,2.72
2022-10-08T14:14:14.517Z,3.00
2022-10-08T14:21:16.338Z,3.25
2022-10-08T14:28:17.942Z,2.80
2022-10-08T14:35:19.783Z,2.92
2022-10-08T14:42:21.361Z,2.42
2022-10-08T14:49:23.970Z,2.80
2022-10-08T14:56:25.782Z,1.65
2022-10-08T15:03:27.368Z,1.60
2022-10-08T15:10:29.004Z,2.10
2022-10-08T15:17:30.613Z,5.20
2022-10-08T15:24:32.189Z,2.30
2022-10-08T15:31:33.815Z,2.05
2022-10-08T15:38:35.392Z,2.47
2022-10-08T15:45:46.002Z,2.22
2022-10-08T15:52:47.937Z,1.98
2022-10-08T15:59:49.678Z,1.42
2022-10-08T16:06:51.243Z,2.00
2022-10-08T16:13:54.496Z,1.85
2022-10-08T16:20:56.184Z,1.90
2022-10-08T16:27:59.206Z,2.00
2022-10-08T16:35:00.779Z,2.60
2022-10-08T16:42:02.296Z,2.33
2022-10-08T16:49:05.602Z,1.90
2022-10-08T16:56:07.167Z,3.08
2022-10-08T17:03:08.738Z,2.10
2022-10-08T17:10:10.632Z,1.90
2022-10-08T17:17:12.306Z,2.05
2022-10-08T17:24:14.175Z,2.28
2022-10-08T17:31:20.578Z,2.65
2022-10-08T17:38:22.179Z,2.05
2022-10-08T17:45:23.830Z,2.35
2022-10-08T17:52:25.416Z,2.35
2022-10-08T17:59:27.066Z,3.88
2022-10-08T18:06:29.275Z,2.60
2022-10-08T18:13:30.978Z,2.30
2022-10-08T18:20:32.607Z,3.03
2022-10-08T18:27:34.234Z,2.30
2022-10-08T18:34:35.829Z,5.22
2022-10-08T18:41:41.031Z,7.78
2022-10-08T18:48:42.867Z,2.90
2022-10-08T18:55:49.432Z,4.47
2022-10-08T19:02:54.241Z,2.35
2022-10-08T19:09:55.961Z,2.70
2022-10-08T19:16:57.543Z,2.50
2022-10-08T19:23:59.267Z,2.40
2022-10-08T19:31:00.916Z,2.83
2022-10-08T19:38:02.632Z,3.00
2022-10-08T19:45:04.692Z,12.02
2022-10-08T19:52:06.390Z,2.65
2022-10-08T19:59:09.167Z,2.95
2022-10-08T20:06:12.906Z,2.60
2022-10-08T20:13:14.467Z,2.60
2022-10-08T20:20:32.454Z,3.45
2022-10-08T20:27:34.768Z,2.25
2022-10-08T20:34:37.712Z,2.47
2022-10-08T20:41:39.429Z,2.58
2022-10-08T20:48:41.862Z,2.47
2022-10-08T20:55:43.417Z,2.40
2022-10-08T21:02:45.062Z,2.00
2022-10-08T21:09:47.056Z,2.40
2022-10-08T21:16:48.694Z,2.70
2022-10-08T21:23:50.309Z,2.80
2022-10-08T21:30:54.967Z,2.50
2022-10-08T21:37:56.580Z,2.30
2022-10-08T21:44:58.827Z,1.90
2022-10-08T21:52:00.389Z,2.08
2022-10-08T21:59:02.549Z,2.58
2022-10-08T22:06:04.572Z,2.38
2022-10-08T22:13:06.136Z,2.63
2022-10-08T22:20:08.055Z,2.28
2022-10-08T22:27:09.689Z,2.33
2022-10-08T22:34:11.395Z,2.20
2022-10-08T22:41:15.267Z,2.30
2022-10-08T22:48:16.846Z,2.28
2022-10-08T22:55:18.523Z,2.00
2022-10-08T23:02:20.126Z,2.15
2022-10-08T23:09:21.695Z,2.10
2022-10-08T23:16:23.606Z,2.30
2022-10-08T23:23:25.228Z,2.33
2022-10-08T23:30:42.628Z,1.98
2022-10-08T23:37:47.145Z,1.77
2022-10-08T23:44:48.717Z,2.08
2022-10-08T23:51:50.303Z,2.40
2022-10-08T23:58:51.886Z,2.00
